createdAt,value
2022-12-16T00:01:16.828Z,101255.22
2022-12-16T00:03:18.515Z,101252.66
2022-12-16T00:05:20.704Z,101261.75
2022-12-16T00:07:22.363Z,101262.44
2022-12-16T00:09:24.030Z,101260.00
2022-12-16T00:11:25.714Z,101260.06
2022-12-16T00:13:28.846Z,101260.06
2022-12-16T00:15:30.630Z,101256.00
2022-12-16T00:17:32.447Z,101257.53
2022-12-16T00:19:34.115Z,101260.06
2022-12-16T00:21:36.633Z,101265.16
2022-12-16T00:23:44.576Z,101255.00
2022-12-16T00:25:47.417Z,101260.00
2022-12-16T00:27:49.103Z,101258.31
2022-12-16T00:29:50.818Z,101263.41
2022-12-16T00:31:52.514Z,101260.78
2022-12-16T00:33:59.697Z,101263.22
2022-12-16T00:36:01.389Z,101247.09
2022-12-16T00:38:03.183Z,101253.16
2022-12-16T00:40:05.508Z,101259.13
2022-12-16T00:42:07.288Z,101256.47
2022-12-16T00:44:09.723Z,101255.50
2022-12-16T00:46:11.573Z,101258.06
2022-12-16T00:48:13.405Z,101258.06
2022-12-16T00:50:15.123Z,101255.44
2022-12-16T00:52:16.770Z,101248.06
2022-12-16T00:54:18.509Z,101254.03
2022-12-16T00:56:20.181Z,101249.56
2022-12-16T00:58:21.833Z,101245.97
2022-12-16T01:00:23.910Z,101250.53
2022-12-16T01:02:25.807Z,101248.59
2022-12-16T01:04:27.694Z,101252.09
2022-12-16T01:06:29.383Z,101257.09
2022-12-16T01:08:31.047Z,101252.09
2022-12-16T01:10:32.767Z,101253.75
2022-12-16T01:12:35.560Z,101251.91
2022-12-16T01:14:37.276Z,101256.88
2022-12-16T01:16:39.032Z,101262.06
2022-12-16T01:18:40.863Z,101260.91
2022-12-16T01:20:42.656Z,101261.69
2022-12-16T01:22:44.322Z,101254.16
2022-12-16T01:24:46.131Z,101262.75
2022-12-16T01:26:47.783Z,101258.38
2022-12-16T01:28:49.547Z,101266.06
2022-12-16T01:31:01.955Z,101260.91
2022-12-16T01:33:03.938Z,101266.94
2022-12-16T01:35:18.144Z,101280.34
2022-12-16T01:37:28.323Z,101282.78
2022-12-16T01:39:30.357Z,101281.22
2022-12-16T01:41:32.017Z,101283.94
2022-12-16T01:43:36.933Z,101285.59
2022-12-16T01:45:38.960Z,101290.97
2022-12-16T01:47:40.700Z,101283.16
2022-12-16T01:49:55.333Z,101295.84
2022-12-16T01:52:02.046Z,101296.75
2022-12-16T01:54:21.646Z,101297.41
2022-12-16T01:56:27.286Z,101304.25
2022-12-16T01:58:34.510Z,101316.16
2022-12-16T02:00:37.996Z,101317.75
2022-12-16T02:02:43.932Z,101316.16
2022-12-16T02:05:04.624Z,101327.09
2022-12-16T02:07:06.299Z,101325.97
2022-12-16T02:09:11.302Z,101325.19
2022-12-16T02:11:47.680Z,101328.50
2022-12-16T02:13:52.287Z,101334.56
2022-12-16T02:16:27.792Z,101328.59
2022-12-16T02:18:44.663Z,101331.03
2022-12-16T02:21:20.200Z,101330.94
2022-12-16T02:23:50.471Z,101333.28
2022-12-16T02:25:59.370Z,101334.84
2022-12-16T02:28:12.346Z,101333.19
2022-12-16T02:30:32.888Z,101335.44
2022-12-16T02:32:52.859Z,101336.81
2022-12-16T02:35:22.564Z,101337.47
2022-12-16T02:37:43.153Z,101333.78
2022-12-16T02:40:08.906Z,101336.41
2022-12-16T02:42:20.074Z,101338.84
2022-12-16T02:44:35.813Z,101342.09
2022-12-16T02:46:53.013Z,101338.75
2022-12-16T02:49:06.261Z,101336.59
2022-12-16T02:51:13.461Z,101338.06
2022-12-16T02:53:15.545Z,101337.38
2022-12-16T02:55:17.713Z,101335.22
2022-12-16T02:57:40.374Z,101342.38
2022-12-16T03:00:03.838Z,101346.66
2022-12-16T03:02:19.703Z,101350.97
2022-12-16T03:04:58.789Z,101347.44
2022-12-16T03:07:01.638Z,101347.53
2022-12-16T03:09:07.862Z,101351.06
2022-12-16T03:11:09.799Z,101349.19
2022-12-16T03:13:13.447Z,101357.78
2022-12-16T03:15:20.340Z,101368.91
2022-12-16T03:17:24.511Z,101366.28
2022-12-16T03:19:28.217Z,101370.56
2022-12-16T03:21:37.444Z,101372.06
2022-12-16T03:23:52.770Z,101374.88
2022-12-16T03:25:59.367Z,101372.25
2022-12-16T03:28:16.857Z,101380.34
2022-12-16T03:30:25.534Z,101375.06
2022-12-16T03:32:41.401Z,101370.97
2022-12-16T03:34:52.119Z,101371.28
2022-12-16T03:36:56.785Z,101359.44
2022-12-16T03:38:59.842Z,101364.91
2022-12-16T03:41:08.706Z,101363.84
2022-12-16T03:43:16.136Z,101368.13
2022-12-16T03:45:24.409Z,101368.91
2022-12-16T03:47:29.609Z,101372.22
2022-12-16T03:49:31.384Z,101374.78
2022-12-16T03:51:33.064Z,101370.66
2022-12-16T03:53:35.112Z,101374.88
2022-12-16T03:55:37.030Z,101373.03
2022-12-16T03:57:38.665Z,101372.22
2022-12-16T03:59:40.324Z,101378.78
2022-12-16T04:01:42.050Z,101381.59
2022-12-16T04:03:43.936Z,101380.91
2022-12-16T04:05:45.909Z,101383.38
2022-12-16T04:07:47.690Z,101378.59
2022-12-16T04:09:49.607Z,101382.56
2022-12-16T04:12:09.998Z,101379.94
2022-12-16T04:14:30.126Z,101380.81
2022-12-16T04:16:50.350Z,101389.50
2022-12-16T04:19:10.561Z,101390.28
2022-12-16T04:21:31.179Z,101393.59
2022-12-16T04:23:54.200Z,101394.59
2022-12-16T04:25:55.954Z,101391.84
2022-12-16T04:27:58.748Z,101391.75
2022-12-16T04:30:19.261Z,101388.16
2022-12-16T04:32:21.133Z,101387.38
2022-12-16T04:34:25.849Z,101392.63
2022-12-16T04:36:46.108Z,101399.28
2022-12-16T04:39:06.267Z,101400.75
2022-12-16T04:41:26.474Z,101399.75
2022-12-16T04:43:47.043Z,101401.13
2022-12-16T04:46:07.608Z,101397.88
2022-12-16T04:48:28.071Z,101403.16
2022-12-16T04:50:48.555Z,101402.28
2022-12-16T04:53:12.005Z,101406.56
2022-12-16T04:55:32.536Z,101409.91
2022-12-16T04:57:53.594Z,101410.56
2022-12-16T05:00:14.258Z,101411.25
2022-12-16T05:02:42.445Z,101417.31
2022-12-16T05:05:02.917Z,101419.84
2022-12-16T05:07:23.433Z,101417.91
2022-12-16T05:09:43.785Z,101417.13
2022-12-16T05:12:04.240Z,101415.91
2022-12-16T05:14:24.658Z,101420.03
2022-12-16T05:16:45.061Z,101425.88
2022-12-16T05:19:05.471Z,101421.69
2022-12-16T05:21:25.772Z,101434.47
2022-12-16T05:23:46.250Z,101427.44
2022-12-16T05:26:07.746Z,101425.69
2022-12-16T05:28:27.947Z,101433.59
2022-12-16T05:30:48.442Z,101430.16
2022-12-16T05:33:09.061Z,101434.28
2022-12-16T05:35:29.421Z,101439.34
2022-12-16T05:37:49.885Z,101439.34
2022-12-16T05:40:10.377Z,101443.44
2022-12-16T05:42:30.855Z,101438.38
2022-12-16T05:44:51.260Z,101432.31
2022-12-16T05:47:11.800Z,101436.38
2022-12-16T05:49:39.587Z,101445.75
2022-12-16T05:52:00.070Z,101438.72
2022-12-16T05:54:20.328Z,101441.06
2022-12-16T05:56:40.772Z,101445.16
2022-12-16T05:59:00.593Z,101450.34
2022-12-16T06:01:20.766Z,101460.25
2022-12-16T06:03:41.294Z,101467.09
2022-12-16T06:06:01.856Z,101468.75
2022-12-16T06:08:22.289Z,101466.19
2022-12-16T06:10:42.840Z,101465.03
2022-12-16T06:13:06.402Z,101460.84
2022-12-16T06:15:26.961Z,101466.78
2022-12-16T06:17:47.801Z,101458.53
2022-12-16T06:20:08.005Z,101450.94
2022-12-16T06:22:28.437Z,101450.94
2022-12-16T06:24:48.363Z,101459.31
2022-12-16T06:27:08.369Z,101452.84
2022-12-16T06:29:28.845Z,101465.75
2022-12-16T06:31:49.136Z,101468.06
2022-12-16T06:34:09.459Z,101468.06
2022-12-16T06:36:29.926Z,101475.00
2022-12-16T06:38:50.341Z,101474.88
2022-12-16T06:41:10.797Z,101476.53
2022-12-16T06:43:31.322Z,101481.22
2022-12-16T06:45:51.821Z,101486.81
2022-12-16T06:48:12.335Z,101490.03
2022-12-16T06:50:32.666Z,101485.28
2022-12-16T06:52:53.069Z,101486.19
2022-12-16T06:55:13.559Z,101493.22
2022-12-16T06:57:34.081Z,101495.75
2022-12-16T06:59:54.521Z,101501.03
2022-12-16T07:02:14.726Z,101503.44
2022-12-16T07:04:35.283Z,101494.28
2022-12-16T07:06:55.499Z,101495.16
2022-12-16T07:09:16.014Z,101493.75
2022-12-16T07:12:04.597Z,101492.88
2022-12-16T07:14:24.768Z,101493.75
2022-12-16T07:16:45.376Z,101496.94
2022-12-16T07:19:09.840Z,101498.72
2022-12-16T07:21:37.922Z,101506.31
2022-12-16T07:23:59.098Z,101509.41
2022-12-16T07:26:19.820Z,101523.75
2022-12-16T07:28:40.743Z,101525.72
2022-12-16T07:31:02.840Z,101521.94
2022-12-16T07:33:23.339Z,101527.53
2022-12-16T07:35:44.082Z,101532.22
2022-12-16T07:38:25.799Z,101536.31
2022-12-16T07:40:46.287Z,101535.78
2022-12-16T07:43:06.838Z,101536.53
2022-12-16T07:45:28.118Z,101542.28
2022-12-16T07:47:49.030Z,101559.91
2022-12-16T07:50:09.498Z,101551.88
2022-12-16T07:52:29.965Z,101553.41
2022-12-16T07:55:07.268Z,101564.13
2022-12-16T07:57:28.691Z,101572.25
2022-12-16T07:59:49.046Z,101576.91
2022-12-16T08:02:09.581Z,101578.09
2022-12-16T08:04:29.933Z,101577.56
2022-12-16T08:06:49.870Z,101572.50
2022-12-16T08:09:10.099Z,101581.00
2022-12-16T08:11:30.542Z,101579.44
2022-12-16T08:13:50.990Z,101579.88
2022-12-16T08:16:11.572Z,101588.34
2022-12-16T08:18:32.114Z,101593.53
2022-12-16T08:20:52.438Z,101598.06
2022-12-16T08:23:15.491Z,101596.94
2022-12-16T08:25:35.696Z,101596.22
2022-12-16T08:28:03.941Z,101596.94
2022-12-16T08:30:24.932Z,101601.13
2022-12-16T08:32:45.555Z,101604.25
2022-12-16T08:35:06.095Z,101605.31
2022-12-16T08:37:26.433Z,101606.56
2022-12-16T08:39:59.138Z,101605.13
2022-12-16T08:42:27.126Z,101609.19
2022-12-16T08:44:47.674Z,101617.47
2022-12-16T08:47:08.351Z,101617.69
2022-12-16T08:49:29.197Z,101613.50
2022-12-16T08:51:49.998Z,101615.81
2022-12-16T08:54:11.397Z,101622.97
2022-12-16T08:56:31.918Z,101621.88
2022-12-16T08:58:52.452Z,101626.38
2022-12-16T09:01:12.935Z,101628.81
2022-12-16T09:03:33.835Z,101629.59
2022-12-16T09:05:54.330Z,101622.66
2022-12-16T09:08:22.200Z,101633.56
2022-12-16T09:10:42.798Z,101636.97
2022-12-16T09:13:03.207Z,101643.91
2022-12-16T09:15:23.656Z,101635.53
2022-12-16T09:17:50.165Z,101646.13
2022-12-16T09:20:11.300Z,101648.09
2022-12-16T09:22:31.819Z,101650.75
2022-12-16T09:24:52.385Z,101650.97
2022-12-16T09:27:12.931Z,101654.16
2022-12-16T09:29:33.905Z,101653.84
2022-12-16T09:31:55.682Z,101654.41
2022-12-16T09:34:16.336Z,101664.41
2022-12-16T09:36:36.781Z,101661.66
2022-12-16T09:39:10.020Z,101661.56
2022-12-16T09:42:10.582Z,101665.19
2022-12-16T09:44:33.896Z,101658.91
2022-12-16T09:47:53.297Z,101659.03
2022-12-16T09:50:14.162Z,101656.03
2022-12-16T09:52:37.988Z,101659.34
2022-12-16T09:55:02.770Z,101667.72
2022-12-16T09:57:24.472Z,101668.59
2022-12-16T09:59:49.879Z,101677.66
2022-12-16T10:02:11.472Z,101676.44
2022-12-16T10:04:31.878Z,101672.78
2022-12-16T10:06:51.781Z,101680.75
2022-12-16T10:09:22.405Z,101674.03
2022-12-16T10:12:00.331Z,101690.91
2022-12-16T10:14:37.317Z,101685.81
2022-12-16T10:17:14.873Z,101686.03
2022-12-16T10:20:13.757Z,101692.66
2022-12-16T10:23:11.365Z,101689.44
2022-12-16T10:26:23.122Z,101695.09
2022-12-16T10:29:12.513Z,101699.94
2022-12-16T10:31:35.880Z,101694.84
2022-12-16T10:33:56.281Z,101699.91
2022-12-16T10:36:16.846Z,101701.69
2022-12-16T10:38:55.900Z,101698.03
2022-12-16T10:41:19.556Z,101696.81
2022-12-16T10:44:01.433Z,101698.88
2022-12-16T10:46:31.565Z,101703.63
2022-12-16T10:48:56.940Z,101702.03
2022-12-16T10:51:19.282Z,101694.09
2022-12-16T10:53:46.477Z,101701.78
2022-12-16T10:56:31.807Z,101691.28
2022-12-16T10:59:05.767Z,101693.47
2022-12-16T11:01:44.534Z,101699.00
2022-12-16T11:04:05.188Z,101692.00
2022-12-16T11:06:27.188Z,101693.56
2022-12-16T11:08:55.705Z,101695.44
2022-12-16T11:11:40.722Z,101686.66
2022-12-16T11:14:01.211Z,101691.06
2022-12-16T11:16:29.515Z,101684.31
2022-12-16T11:18:50.095Z,101679.19
2022-12-16T11:21:35.578Z,101688.84
2022-12-16T11:23:56.025Z,101682.53
2022-12-16T11:26:43.452Z,101682.69
2022-12-16T11:29:05.520Z,101683.75
2022-12-16T11:31:54.102Z,101681.88
2022-12-16T11:34:33.240Z,101686.28
2022-12-16T11:36:56.963Z,101674.19
2022-12-16T11:39:17.851Z,101671.41
2022-12-16T11:41:46.554Z,101678.75
2022-12-16T11:44:10.697Z,101674.47
2022-12-16T11:46:34.448Z,101674.38
2022-12-16T11:49:04.160Z,101675.75
2022-12-16T11:51:31.413Z,101675.75
2022-12-16T11:54:08.527Z,101674.38
2022-12-16T11:56:34.670Z,101671.03
2022-12-16T11:59:09.983Z,101673.00
2022-12-16T12:01:45.564Z,101670.19
2022-12-16T12:04:08.948Z,101666.06
2022-12-16T12:06:43.813Z,101670.25
2022-12-16T12:09:34.658Z,101670.44
2022-12-16T12:12:01.680Z,101673.28
2022-12-16T12:14:44.096Z,101679.25
2022-12-16T12:17:19.412Z,101676.41
2022-12-16T12:20:01.000Z,101669.72
2022-12-16T12:22:29.587Z,101670.38
2022-12-16T12:25:09.350Z,101680.22
2022-12-16T12:27:47.841Z,101675.38
2022-12-16T12:30:23.466Z,101676.13
2022-12-16T12:33:01.658Z,101682.50
2022-12-16T12:35:32.204Z,101682.03
2022-12-16T12:38:04.218Z,101680.44
2022-12-16T12:41:14.310Z,101676.41
2022-12-16T12:43:54.597Z,101680.66
2022-12-16T12:46:29.020Z,101672.47
2022-12-16T12:49:14.093Z,101674.25
2022-12-16T12:51:56.441Z,101669.59
2022-12-16T12:54:22.989Z,101675.66
2022-12-16T12:57:15.573Z,101678.22
2022-12-16T12:59:47.110Z,101676.09
2022-12-16T13:02:11.143Z,101671.31
2022-12-16T13:04:36.287Z,101677.59
2022-12-16T13:06:57.489Z,101675.28
2022-12-16T13:09:18.475Z,101678.34
2022-12-16T13:11:38.729Z,101677.19
2022-12-16T13:13:59.304Z,101681.00
2022-12-16T13:16:20.942Z,101686.91
2022-12-16T13:18:44.191Z,101682.81
2022-12-16T13:21:09.426Z,101680.00
2022-12-16T13:23:49.657Z,101679.19
2022-12-16T13:26:11.257Z,101676.38
2022-12-16T13:28:40.254Z,101665.38
2022-12-16T13:31:24.664Z,101670.56
2022-12-16T13:33:50.098Z,101670.81
2022-12-16T13:36:15.071Z,101671.25
2022-12-16T13:38:40.302Z,101667.66
2022-12-16T13:41:19.075Z,101660.09
2022-12-16T13:44:05.313Z,101669.94
2022-12-16T13:46:25.289Z,101670.88
2022-12-16T13:48:53.733Z,101672.75
2022-12-16T13:51:18.809Z,101675.78
2022-12-16T13:53:43.921Z,101670.28
2022-12-16T13:56:19.355Z,101672.31
2022-12-16T13:59:11.220Z,101671.53
2022-12-16T14:01:35.652Z,101671.91
2022-12-16T14:04:03.791Z,101682.78
2022-12-16T14:06:34.563Z,101675.13
2022-12-16T14:09:00.014Z,101679.44
2022-12-16T14:11:23.440Z,101689.84
2022-12-16T14:13:50.441Z,101685.91
2022-12-16T14:16:26.517Z,101680.72
2022-12-16T14:19:07.534Z,101685.41
2022-12-16T14:21:34.567Z,101683.63
2022-12-16T14:24:04.125Z,101684.16
2022-12-16T14:26:31.100Z,101690.56
2022-12-16T14:28:54.223Z,101692.00
2022-12-16T14:31:35.759Z,101690.69
2022-12-16T14:33:56.079Z,101686.19
2022-12-16T14:36:16.573Z,101688.06
2022-12-16T14:38:49.835Z,101693.03
2022-12-16T14:41:10.911Z,101694.19
2022-12-16T14:43:36.093Z,101693.75
2022-12-16T14:45:57.819Z,101702.94
2022-12-16T14:48:19.206Z,101700.81
2022-12-16T14:50:48.750Z,101697.47
2022-12-16T14:53:09.233Z,101704.31
2022-12-16T14:55:47.419Z,101706.78
2022-12-16T14:58:20.990Z,101711.03
2022-12-16T15:00:42.762Z,101717.34
2022-12-16T15:03:06.260Z,101722.44
2022-12-16T15:05:26.943Z,101720.44
2022-12-16T15:07:53.449Z,101721.25
2022-12-16T15:10:17.810Z,101728.81
2022-12-16T15:12:42.076Z,101730.47
2022-12-16T15:15:02.590Z,101729.22
2022-12-16T15:17:23.256Z,101736.25
2022-12-16T15:19:44.020Z,101735.31
2022-12-16T15:22:06.072Z,101738.81
2022-12-16T15:24:29.091Z,101742.94
2022-12-16T15:26:51.885Z,101743.75
2022-12-16T15:29:12.865Z,101746.94
2022-12-16T15:31:41.893Z,101745.16
2022-12-16T15:34:02.098Z,101749.19
2022-12-16T15:36:24.059Z,101748.13
2022-12-16T15:38:50.534Z,101748.94
2022-12-16T15:41:11.011Z,101748.13
2022-12-16T15:43:45.501Z,101751.41
2022-12-16T15:46:09.539Z,101757.09
2022-12-16T15:48:41.941Z,101754.44
2022-12-16T15:51:11.522Z,101765.34
2022-12-16T15:53:47.241Z,101761.22
2022-12-16T15:56:14.940Z,101761.31
2022-12-16T15:58:47.475Z,101767.59
2022-12-16T16:01:19.423Z,101766.28
2022-12-16T16:03:52.414Z,101770.31
2022-12-16T16:06:12.736Z,101772.19
2022-12-16T16:08:32.771Z,101776.72
2022-12-16T16:10:53.110Z,101778.47
2022-12-16T16:13:13.353Z,101776.31
2022-12-16T16:15:33.791Z,101790.25
2022-12-16T16:17:54.312Z,101784.34
2022-12-16T16:20:14.569Z,101786.00
2022-12-16T16:22:36.521Z,101788.88
2022-12-16T16:25:04.272Z,101783.41
2022-12-16T16:27:29.923Z,101790.66
2022-12-16T16:29:50.057Z,101788.81
2022-12-16T16:32:11.417Z,101791.09
2022-12-16T16:34:31.750Z,101785.13
2022-12-16T16:36:52.359Z,101797.16
2022-12-16T16:39:12.981Z,101788.94
2022-12-16T16:41:34.506Z,101791.56
2022-12-16T16:43:55.023Z,101783.22
2022-12-16T16:46:15.634Z,101790.09
2022-12-16T16:48:36.982Z,101791.47
2022-12-16T16:50:56.926Z,101796.00
2022-12-16T16:53:17.448Z,101797.84
2022-12-16T16:55:40.592Z,101790.31
2022-12-16T16:58:01.788Z,101798.03
2022-12-16T17:00:22.836Z,101796.47
2022-12-16T17:02:43.740Z,101802.53
2022-12-16T17:05:04.157Z,101800.22
2022-12-16T17:07:24.596Z,101804.19
2022-12-16T17:09:44.811Z,101794.00
2022-12-16T17:12:05.144Z,101806.56
2022-12-16T17:14:31.249Z,101805.41
2022-12-16T17:16:51.814Z,101813.22
2022-12-16T17:19:12.281Z,101810.09
2022-12-16T17:21:32.729Z,101806.56
2022-12-16T17:23:54.717Z,101807.25
2022-12-16T17:26:15.263Z,101810.41
2022-12-16T17:28:35.775Z,101819.09
2022-12-16T17:30:56.416Z,101823.03
2022-12-16T17:33:16.947Z,101819.38
2022-12-16T17:35:37.500Z,101821.06
2022-12-16T17:38:03.294Z,101810.59
2022-12-16T17:40:23.815Z,101805.41
2022-12-16T17:42:46.583Z,101812.03
2022-12-16T17:45:07.216Z,101810.28
2022-12-16T17:47:27.978Z,101813.41
2022-12-16T17:49:48.310Z,101812.44
2022-12-16T17:52:08.675Z,101814.75
2022-12-16T17:54:29.644Z,101818.50
2022-12-16T17:56:50.333Z,101823.25
2022-12-16T17:59:11.334Z,101814.34
2022-12-16T18:01:32.005Z,101818.50
2022-12-16T18:03:52.815Z,101820.41
2022-12-16T18:06:16.595Z,101819.38
2022-12-16T18:08:36.968Z,101823.31
2022-12-16T18:10:57.307Z,101820.41
2022-12-16T18:13:17.216Z,101816.19
2022-12-16T18:15:37.415Z,101817.28
2022-12-16T18:18:07.061Z,101818.59
2022-12-16T18:20:27.668Z,101819.88
2022-12-16T18:22:48.268Z,101815.66
2022-12-16T18:25:08.654Z,101826.31
2022-12-16T18:27:29.174Z,101825.31
2022-12-16T18:29:49.490Z,101826.22
2022-12-16T18:32:20.380Z,101823.53
2022-12-16T18:34:40.794Z,101821.47
2022-12-16T18:37:01.328Z,101829.88
2022-12-16T18:39:22.304Z,101827.03
2022-12-16T18:41:42.627Z,101826.16
2022-12-16T18:44:02.879Z,101827.03
2022-12-16T18:46:23.341Z,101828.72
2022-12-16T18:48:43.926Z,101833.78
2022-12-16T18:51:12.077Z,101841.63
2022-12-16T18:53:32.930Z,101845.72
2022-12-16T18:56:13.388Z,101849.94
2022-12-16T19:01:25.728Z,101847.69
2022-12-16T19:03:46.371Z,101848.03
2022-12-16T19:06:14.367Z,101853.56
2022-12-16T19:08:34.419Z,101852.00
2022-12-16T19:10:54.645Z,101855.13
2022-12-16T19:13:18.362Z,101856.50
2022-12-16T19:15:41.512Z,101868.41
2022-12-16T19:18:07.524Z,101869.69
2022-12-16T19:20:32.896Z,101870.03
2022-12-16T19:22:53.553Z,101876.44
2022-12-16T19:25:16.203Z,101878.13
2022-12-16T19:27:42.241Z,101879.78
2022-12-16T19:30:02.618Z,101881.00
2022-12-16T19:32:23.281Z,101875.31
2022-12-16T19:34:43.986Z,101872.09
2022-12-16T19:37:04.116Z,101863.13
2022-12-16T19:39:24.687Z,101864.09
2022-12-16T19:41:45.522Z,101875.16
2022-12-16T19:44:06.655Z,101877.91
2022-12-16T19:46:27.328Z,101875.16
2022-12-16T19:48:47.741Z,101881.03
2022-12-16T19:51:07.907Z,101894.63
2022-12-16T19:53:28.288Z,101896.41
2022-12-16T19:55:48.560Z,101893.97
2022-12-16T19:58:08.898Z,101893.97
2022-12-16T20:00:30.097Z,101896.22
2022-12-16T20:02:50.405Z,101893.97
2022-12-16T20:05:10.756Z,101891.47
2022-12-16T20:07:31.026Z,101902.72
2022-12-16T20:09:54.885Z,101902.41
2022-12-16T20:12:16.155Z,101899.97
2022-12-16T20:14:36.671Z,101904.88
2022-12-16T20:16:57.661Z,101900.84
2022-12-16T20:19:18.418Z,101913.47
2022-12-16T20:21:38.738Z,101904.38
2022-12-16T20:23:58.801Z,101908.16
2022-12-16T20:26:20.269Z,101907.34
2022-12-16T20:28:40.796Z,101911.72
2022-12-16T20:31:01.077Z,101913.19
2022-12-16T20:33:21.436Z,101912.84
2022-12-16T20:35:41.811Z,101919.25
2022-12-16T20:38:03.841Z,101915.03
2022-12-16T20:40:24.833Z,101915.91
2022-12-16T20:42:56.447Z,101921.53
2022-12-16T20:45:16.784Z,101924.63
2022-12-16T20:47:42.015Z,101925.22
2022-12-16T20:50:02.150Z,101920.16
2022-12-16T20:52:23.340Z,101920.16
2022-12-16T20:54:43.838Z,101921.97
2022-12-16T20:57:05.997Z,101911.81
2022-12-16T20:59:28.650Z,101912.25
2022-12-16T21:02:21.219Z,101908.38
2022-12-16T21:04:29.308Z,101917.91
2022-12-16T21:06:49.588Z,101927.06
2022-12-16T21:09:10.079Z,101928.41
2022-12-16T21:11:30.638Z,101929.59
2022-12-16T21:13:51.008Z,101939.00
2022-12-16T21:16:12.548Z,101943.00
2022-12-16T21:18:33.079Z,101938.91
2022-12-16T21:20:53.246Z,101951.41
2022-12-16T21:23:23.642Z,101949.41
2022-12-16T21:25:44.044Z,101941.56
2022-12-16T21:28:05.483Z,101945.53
2022-12-16T21:30:26.200Z,101944.09
2022-12-16T21:32:46.190Z,101952.59
2022-12-16T21:35:06.513Z,101949.44
2022-12-16T21:37:26.778Z,101949.97
2022-12-16T21:39:47.159Z,101951.63
2022-12-16T21:42:07.353Z,101958.56
2022-12-16T21:44:27.558Z,101964.88
2022-12-16T21:46:47.944Z,101961.34
2022-12-16T21:49:08.106Z,101956.47
2022-12-16T21:51:29.505Z,101950.84
2022-12-16T21:53:49.813Z,101952.75
2022-12-16T21:56:13.803Z,101952.97
2022-12-16T21:58:33.870Z,101951.84
2022-12-16T22:00:58.812Z,101942.44
2022-12-16T22:03:21.142Z,101936.59
2022-12-16T22:05:41.690Z,101944.78
2022-12-16T22:08:03.254Z,101943.22
2022-12-16T22:10:24.142Z,101937.16
2022-12-16T22:12:44.170Z,101941.66
2022-12-16T22:15:04.617Z,101939.22
2022-12-16T22:17:24.723Z,101939.22
2022-12-16T22:19:45.267Z,101941.34
2022-12-16T22:22:06.297Z,101941.00
2022-12-16T22:24:27.235Z,101945.75
2022-12-16T22:26:47.529Z,101944.97
2022-12-16T22:29:11.134Z,101946.94
2022-12-16T22:31:31.680Z,101948.38
2022-12-16T22:33:52.037Z,101946.81
2022-12-16T22:36:18.842Z,101948.03
2022-12-16T22:38:39.384Z,101945.63
2022-12-16T22:40:59.874Z,101943.94
2022-12-16T22:43:20.273Z,101945.94
2022-12-16T22:45:40.787Z,101938.31
2022-12-16T22:48:06.680Z,101949.53
2022-12-16T22:50:27.233Z,101957.25
2022-12-16T22:52:47.705Z,101959.41
2022-12-16T22:55:08.286Z,101956.97
2022-12-16T22:57:28.717Z,101962.72
2022-12-16T22:59:49.471Z,101961.94
2022-12-16T23:02:09.551Z,101952.56
2022-12-16T23:04:30.196Z,101960.09
2022-12-16T23:06:50.587Z,101952.78
2022-12-16T23:09:10.690Z,101963.06
2022-12-16T23:11:39.976Z,101959.09
2022-12-16T23:14:00.482Z,101963.53
2022-12-16T23:16:20.803Z,101962.84
2022-12-16T23:18:40.776Z,101964.22
2022-12-16T23:21:06.457Z,101964.22
2022-12-16T23:23:26.981Z,101964.63
2022-12-16T23:25:47.755Z,101960.44
2022-12-16T23:28:09.419Z,101947.63
2022-12-16T23:30:30.338Z,101955.81
2022-12-16T23:32:50.206Z,101961.22
2022-12-16T23:35:10.291Z,101961.22
2022-12-16T23:37:30.500Z,101963.75
2022-12-16T23:39:51.013Z,101963.84
2022-12-16T23:42:12.384Z,101959.22
2022-12-16T23:44:32.647Z,101959.13
2022-12-16T23:46:53.422Z,101957.34
2022-12-16T23:49:13.955Z,101957.78
2022-12-16T23:51:34.351Z,101957.44
2022-12-16T23:53:54.345Z,101952.13
2022-12-16T23:56:18.542Z,101959.97
2022-12-16T23:58:38.522Z,101961.75
